sensor_id;sensor_type;location;lat;lon;timestamp;P1;durP1;ratioP1;P2;durP2;ratioP2
1959;SDS011;980;43.794;11.212;2022-10-31T00:00:39;13.75;;;11.00;;
1959;SDS011;980;43.794;11.212;2022-10-31T00:03:05;10.00;;;9.25;;
1959;SDS011;980;43.794;11.212;2022-10-31T00:05:30;7.00;;;7.00;;
1959;SDS011;980;43.794;11.212;2022-10-31T00:07:55;13.00;;;11.00;;
1959;SDS011;980;43.794;11.212;2022-10-31T00:10:20;13.00;;;10.00;;
1959;SDS011;980;43.794;11.212;2022-10-31T00:12:46;13.25;;;10.75;;
1959;SDS011;980;43.794;11.212;2022-10-31T00:15:11;9.50;;;9.00;;
1959;SDS011;980;43.794;11.212;2022-10-31T00:17:36;6.00;;;4.00;;
1959;SDS011;980;43.794;11.212;2022-10-31T00:20:02;9.00;;;8.50;;
1959;SDS011;980;43.794;11.212;2022-10-31T00:22:27;10.25;;;7.50;;
1959;SDS011;980;43.794;11.212;2022-10-31T00:24:52;10.75;;;9.00;;
1959;SDS011;980;43.794;11.212;2022-10-31T00:27:17;10.75;;;10.00;;
1959;SDS011;980;43.794;11.212;2022-10-31T00:29:43;10.00;;;9.00;;
1959;SDS011;980;43.794;11.212;2022-10-31T00:32:08;10.50;;;8.50;;
1959;SDS011;980;43.794;11.212;2022-10-31T00:34:33;10.50;;;9.00;;
1959;SDS011;980;43.794;11.212;2022-10-31T00:36:58;9.00;;;9.00;;
1959;SDS011;980;43.794;11.212;2022-10-31T00:39:24;11.25;;;9.00;;
1959;SDS011;980;43.794;11.212;2022-10-31T00:41:49;8.50;;;8.50;;
1959;SDS011;980;43.794;11.212;2022-10-31T00:44:14;9.25;;;9.25;;
1959;SDS011;980;43.794;11.212;2022-10-31T00:46:40;9.00;;;9.00;;
1959;SDS011;980;43.794;11.212;2022-10-31T00:49:05;11.25;;;10.00;;
1959;SDS011;980;43.794;11.212;2022-10-31T00:51:31;11.75;;;9.75;;
1959;SDS011;980;43.794;11.212;2022-10-31T00:53:56;9.25;;;9.00;;
1959;SDS011;980;43.794;11.212;2022-10-31T00:56:21;10.75;;;10.00;;
1959;SDS011;980;43.794;11.212;2022-10-31T00:58:47;13.00;;;10.75;;
1959;SDS011;980;43.794;11.212;2022-10-31T01:01:12;10.25;;;8.50;;
1959;SDS011;980;43.794;11.212;2022-10-31T01:03:37;10.25;;;10.25;;
1959;SDS011;980;43.794;11.212;2022-10-31T01:06:08;7.50;;;7.25;;
1959;SDS011;980;43.794;11.212;2022-10-31T01:08:34;11.75;;;8.75;;
1959;SDS011;980;43.794;11.212;2022-10-31T01:11:03;11.25;;;10.00;;
1959;SDS011;980;43.794;11.212;2022-10-31T01:13:29;13.00;;;9.00;;
1959;SDS011;980;43.794;11.212;2022-10-31T01:15:55;14.00;;;11.75;;
1959;SDS011;980;43.794;11.212;2022-10-31T01:18:21;11.25;;;11.00;;
1959;SDS011;980;43.794;11.212;2022-10-31T01:20:46;9.75;;;8.50;;
1959;SDS011;980;43.794;11.212;2022-10-31T01:23:11;8.75;;;8.75;;
1959;SDS011;980;43.794;11.212;2022-10-31T01:25:37;11.00;;;9.00;;
1959;SDS011;980;43.794;11.212;2022-10-31T01:28:02;11.50;;;9.50;;
1959;SDS011;980;43.794;11.212;2022-10-31T01:30:27;12.25;;;11.00;;
1959;SDS011;980;43.794;11.212;2022-10-31T01:32:52;9.25;;;9.25;;
1959;SDS011;980;43.794;11.212;2022-10-31T01:35:18;8.25;;;8.25;;
1959;SDS011;980;43.794;11.212;2022-10-31T01:37:43;15.50;;;8.75;;
1959;SDS011;980;43.794;11.212;2022-10-31T01:40:08;11.25;;;9.25;;
1959;SDS011;980;43.794;11.212;2022-10-31T01:42:34;11.50;;;9.00;;
1959;SDS011;980;43.794;11.212;2022-10-31T01:45:00;10.75;;;9.50;;
1959;SDS011;980;43.794;11.212;2022-10-31T01:47:37;11.50;;;10.50;;
1959;SDS011;980;43.794;11.212;2022-10-31T01:50:13;10.75;;;9.25;;
1959;SDS011;980;43.794;11.212;2022-10-31T01:52:40;11.25;;;11.25;;
1959;SDS011;980;43.794;11.212;2022-10-31T01:57:40;12.50;;;10.50;;
1959;SDS011;980;43.794;11.212;2022-10-31T02:00:08;10.50;;;9.00;;
1959;SDS011;980;43.794;11.212;2022-10-31T02:02:34;8.50;;;8.25;;
1959;SDS011;980;43.794;11.212;2022-10-31T02:05:01;11.50;;;9.75;;
1959;SDS011;980;43.794;11.212;2022-10-31T02:07:29;9.25;;;8.00;;
1959;SDS011;980;43.794;11.212;2022-10-31T02:09:56;10.50;;;9.50;;
1959;SDS011;980;43.794;11.212;2022-10-31T02:12:22;9.50;;;7.25;;
1959;SDS011;980;43.794;11.212;2022-10-31T02:14:47;9.50;;;9.25;;
1959;SDS011;980;43.794;11.212;2022-10-31T02:17:13;11.00;;;9.75;;
1959;SDS011;980;43.794;11.212;2022-10-31T02:22:37;10.75;;;7.75;;
1959;SDS011;980;43.794;11.212;2022-10-31T02:30:11;7.50;;;7.50;;
1959;SDS011;980;43.794;11.212;2022-10-31T02:33:40;10.25;;;10.25;;
1959;SDS011;980;43.794;11.212;2022-10-31T02:40:35;9.25;;;7.00;;
1959;SDS011;980;43.794;11.212;2022-10-31T02:45:47;10.50;;;7.25;;
1959;SDS011;980;43.794;11.212;2022-10-31T02:48:18;12.00;;;8.00;;
1959;SDS011;980;43.794;11.212;2022-10-31T02:50:46;12.25;;;8.00;;
1959;SDS011;980;43.794;11.212;2022-10-31T02:53:15;9.00;;;7.25;;
1959;SDS011;980;43.794;11.212;2022-10-31T02:56:02;9.75;;;7.25;;
1959;SDS011;980;43.794;11.212;2022-10-31T02:58:26;7.75;;;7.00;;
1959;SDS011;980;43.794;11.212;2022-10-31T03:10:58;7.75;;;6.75;;
1959;SDS011;980;43.794;11.212;2022-10-31T03:16:05;6.50;;;5.50;;
1959;SDS011;980;43.794;11.212;2022-10-31T03:18:33;10.50;;;10.50;;
1959;SDS011;980;43.794;11.212;2022-10-31T03:21:01;7.00;;;7.00;;
1959;SDS011;980;43.794;11.212;2022-10-31T03:23:29;9.00;;;7.25;;
1959;SDS011;980;43.794;11.212;2022-10-31T03:25:55;7.00;;;7.00;;
1959;SDS011;980;43.794;11.212;2022-10-31T03:28:23;8.25;;;7.00;;
1959;SDS011;980;43.794;11.212;2022-10-31T03:30:51;11.00;;;8.00;;
1959;SDS011;980;43.794;11.212;2022-10-31T03:33:17;8.00;;;6.00;;
1959;SDS011;980;43.794;11.212;2022-10-31T03:35:44;11.00;;;7.75;;
1959;SDS011;980;43.794;11.212;2022-10-31T03:38:11;7.00;;;6.50;;
1959;SDS011;980;43.794;11.212;2022-10-31T03:40:38;11.00;;;6.75;;
1959;SDS011;980;43.794;11.212;2022-10-31T03:43:06;11.25;;;7.25;;
1959;SDS011;980;43.794;11.212;2022-10-31T03:45:33;6.00;;;6.00;;
1959;SDS011;980;43.794;11.212;2022-10-31T03:48:01;7.75;;;6.00;;
1959;SDS011;980;43.794;11.212;2022-10-31T03:50:28;8.00;;;7.00;;
1959;SDS011;980;43.794;11.212;2022-10-31T03:52:57;9.25;;;7.00;;
1959;SDS011;980;43.794;11.212;2022-10-31T03:55:26;6.75;;;5.75;;
1959;SDS011;980;43.794;11.212;2022-10-31T04:00:22;6.00;;;5.25;;
1959;SDS011;980;43.794;11.212;2022-10-31T04:05:16;10.00;;;7.50;;
1959;SDS011;980;43.794;11.212;2022-10-31T04:07:43;9.00;;;7.00;;
1959;SDS011;980;43.794;11.212;2022-10-31T04:10:11;8.50;;;7.00;;
1959;SDS011;980;43.794;11.212;2022-10-31T04:12:38;7.50;;;7.00;;
1959;SDS011;980;43.794;11.212;2022-10-31T04:15:04;7.00;;;7.00;;
1959;SDS011;980;43.794;11.212;2022-10-31T04:17:31;6.50;;;5.75;;
1959;SDS011;980;43.794;11.212;2022-10-31T04:20:01;10.25;;;8.00;;
1959;SDS011;980;43.794;11.212;2022-10-31T04:22:26;9.50;;;6.00;;
1959;SDS011;980;43.794;11.212;2022-10-31T04:24:51;8.50;;;6.75;;
1959;SDS011;980;43.794;11.212;2022-10-31T04:27:17;7.00;;;5.75;;
1959;SDS011;980;43.794;11.212;2022-10-31T04:29:42;5.00;;;5.00;;
1959;SDS011;980;43.794;11.212;2022-10-31T04:32:07;10.50;;;6.50;;
1959;SDS011;980;43.794;11.212;2022-10-31T04:34:32;10.75;;;8.00;;
1959;SDS011;980;43.794;11.212;2022-10-31T04:36:58;10.75;;;10.00;;
1959;SDS011;980;43.794;11.212;2022-10-31T04:39:23;10.00;;;8.00;;
1959;SDS011;980;43.794;11.212;2022-10-31T04:41:48;8.00;;;7.00;;
1959;SDS011;980;43.794;11.212;2022-10-31T04:44:13;9.75;;;8.50;;
1959;SDS011;980;43.794;11.212;2022-10-31T04:46:39;12.00;;;10.50;;
1959;SDS011;980;43.794;11.212;2022-10-31T04:49:04;10.00;;;10.00;;
1959;SDS011;980;43.794;11.212;2022-10-31T04:51:29;10.00;;;8.00;;
1959;SDS011;980;43.794;11.212;2022-10-31T04:53:55;14.75;;;11.75;;
1959;SDS011;980;43.794;11.212;2022-10-31T04:56:20;8.50;;;8.00;;
1959;SDS011;980;43.794;11.212;2022-10-31T04:58:45;11.00;;;7.50;;
1959;SDS011;980;43.794;11.212;2022-10-31T05:01:10;9.75;;;7.75;;
1959;SDS011;980;43.794;11.212;2022-10-31T05:03:36;11.00;;;9.50;;
1959;SDS011;980;43.794;11.212;2022-10-31T05:06:01;8.25;;;4.50;;
1959;SDS011;980;43.794;11.212;2022-10-31T05:08:27;11.75;;;8.50;;
1959;SDS011;980;43.794;11.212;2022-10-31T05:10:53;9.00;;;9.00;;
1959;SDS011;980;43.794;11.212;2022-10-31T05:13:18;10.00;;;7.50;;
1959;SDS011;980;43.794;11.212;2022-10-31T05:15:43;7.00;;;7.00;;
1959;SDS011;980;43.794;11.212;2022-10-31T05:18:08;6.25;;;5.75;;
1959;SDS011;980;43.794;11.212;2022-10-31T05:20:34;11.25;;;7.75;;
1959;SDS011;980;43.794;11.212;2022-10-31T07:19:46;9.50;;;9.00;;
1959;SDS011;980;43.794;11.212;2022-10-31T07:22:12;9.25;;;9.25;;
1959;SDS011;980;43.794;11.212;2022-10-31T07:24:37;40.00;;;35.50;;
1959;SDS011;980;43.794;11.212;2022-10-31T07:27:03;19.75;;;18.00;;
1959;SDS011;980;43.794;11.212;2022-10-31T07:29:28;16.50;;;14.00;;
1959;SDS011;980;43.794;11.212;2022-10-31T07:31:53;11.00;;;11.00;;
1959;SDS011;980;43.794;11.212;2022-10-31T07:34:18;16.75;;;13.75;;
1959;SDS011;980;43.794;11.212;2022-10-31T07:36:44;13.50;;;13.00;;
1959;SDS011;980;43.794;11.212;2022-10-31T07:39:09;15.00;;;10.50;;
1959;SDS011;980;43.794;11.212;2022-10-31T07:41:34;11.00;;;10.00;;
1959;SDS011;980;43.794;11.212;2022-10-31T07:43:59;12.33;;;11.33;;
1959;SDS011;980;43.794;11.212;2022-10-31T07:46:25;44.75;;;37.00;;
1959;SDS011;980;43.794;11.212;2022-10-31T07:48:50;23.67;;;21.33;;
1959;SDS011;980;43.794;11.212;2022-10-31T07:51:15;32.00;;;28.67;;
1959;SDS011;980;43.794;11.212;2022-10-31T07:53:40;11.33;;;11.33;;
1959;SDS011;980;43.794;11.212;2022-10-31T07:56:06;12.33;;;10.67;;
1959;SDS011;980;43.794;11.212;2022-10-31T07:58:31;12.00;;;11.00;;
1959;SDS011;980;43.794;11.212;2022-10-31T08:00:57;12.33;;;11.33;;
1959;SDS011;980;43.794;11.212;2022-10-31T08:03:22;12.00;;;11.00;;
1959;SDS011;980;43.794;11.212;2022-10-31T08:05:47;13.00;;;12.50;;
1959;SDS011;980;43.794;11.212;2022-10-31T08:08:13;10.75;;;10.75;;
1959;SDS011;980;43.794;11.212;2022-10-31T08:10:39;12.00;;;12.00;;
1959;SDS011;980;43.794;11.212;2022-10-31T08:13:14;10.00;;;10.00;;
1959;SDS011;980;43.794;11.212;2022-10-31T10:28:10;11.50;;;9.00;;
1959;SDS011;980;43.794;11.212;2022-10-31T10:30:34;12.50;;;11.00;;
1959;SDS011;980;43.794;11.212;2022-10-31T10:33:08;19.75;;;15.25;;
1959;SDS011;980;43.794;11.212;2022-10-31T10:35:35;12.00;;;12.00;;
1959;SDS011;980;43.794;11.212;2022-10-31T10:40:34;11.00;;;11.00;;
1959;SDS011;980;43.794;11.212;2022-10-31T10:45:49;15.00;;;12.50;;
1959;SDS011;980;43.794;11.212;2022-10-31T10:48:40;12.25;;;11.00;;
1959;SDS011;980;43.794;11.212;2022-10-31T10:51:06;10.80;;;9.80;;
1959;SDS011;980;43.794;11.212;2022-10-31T10:58:44;11.20;;;11.20;;
1959;SDS011;980;43.794;11.212;2022-10-31T11:01:14;9.80;;;9.80;;
1959;SDS011;980;43.794;11.212;2022-10-31T11:03:40;10.60;;;10.60;;
1959;SDS011;980;43.794;11.212;2022-10-31T11:06:15;9.40;;;9.40;;
1959;SDS011;980;43.794;11.212;2022-10-31T11:08:41;12.40;;;11.00;;
1959;SDS011;980;43.794;11.212;2022-10-31T11:11:22;11.00;;;10.67;;
1959;SDS011;980;43.794;11.212;2022-10-31T11:13:51;12.00;;;11.75;;
1959;SDS011;980;43.794;11.212;2022-10-31T11:18:51;13.25;;;13.00;;
1959;SDS011;980;43.794;11.212;2022-10-31T11:21:27;13.00;;;11.67;;
1959;SDS011;980;43.794;11.212;2022-10-31T11:24:36;15.00;;;11.00;;
1959;SDS011;980;43.794;11.212;2022-10-31T11:26:43;10.00;;;8.50;;
1959;SDS011;980;43.794;11.212;2022-10-31T11:29:13;13.00;;;10.33;;
1959;SDS011;980;43.794;11.212;2022-10-31T11:31:39;12.67;;;12.00;;
1959;SDS011;980;43.794;11.212;2022-10-31T11:34:06;14.00;;;11.33;;
1959;SDS011;980;43.794;11.212;2022-10-31T11:36:37;10.33;;;10.00;;
1959;SDS011;980;43.794;11.212;2022-10-31T11:39:05;10.00;;;10.00;;
1959;SDS011;980;43.794;11.212;2022-10-31T11:41:37;12.00;;;10.00;;
1959;SDS011;980;43.794;11.212;2022-10-31T11:51:53;10.50;;;10.50;;
1959;SDS011;980;43.794;11.212;2022-10-31T11:54:29;9.75;;;8.75;;
1959;SDS011;980;43.794;11.212;2022-10-31T11:56:56;10.00;;;8.00;;
1959;SDS011;980;43.794;11.212;2022-10-31T11:59:28;9.75;;;9.00;;
1959;SDS011;980;43.794;11.212;2022-10-31T12:01:54;9.00;;;7.25;;
1959;SDS011;980;43.794;11.212;2022-10-31T12:04:23;8.00;;;8.00;;
1959;SDS011;980;43.794;11.212;2022-10-31T12:06:49;10.00;;;10.00;;
1959;SDS011;980;43.794;11.212;2022-10-31T12:09:28;10.50;;;9.75;;
1959;SDS011;980;43.794;11.212;2022-10-31T12:14:35;13.25;;;10.00;;
1959;SDS011;980;43.794;11.212;2022-10-31T12:27:36;9.00;;;9.00;;
1959;SDS011;980;43.794;11.212;2022-10-31T12:30:10;11.25;;;9.75;;
1959;SDS011;980;43.794;11.212;2022-10-31T12:33:03;10.25;;;9.75;;
1959;SDS011;980;43.794;11.212;2022-10-31T12:35:40;9.25;;;8.00;;
1959;SDS011;980;43.794;11.212;2022-10-31T12:38:24;11.00;;;9.75;;
1959;SDS011;980;43.794;11.212;2022-10-31T12:41:06;9.25;;;9.25;;
1959;SDS011;980;43.794;11.212;2022-10-31T12:43:36;11.25;;;10.00;;
1959;SDS011;980;43.794;11.212;2022-10-31T12:46:03;12.25;;;11.00;;
1959;SDS011;980;43.794;11.212;2022-10-31T12:53:40;10.00;;;9.00;;
1959;SDS011;980;43.794;11.212;2022-10-31T12:58:55;10.25;;;9.00;;
1959;SDS011;980;43.794;11.212;2022-10-31T13:01:30;10.00;;;9.25;;
1959;SDS011;980;43.794;11.212;2022-10-31T13:03:58;10.00;;;10.00;;
1959;SDS011;980;43.794;11.212;2022-10-31T13:06:29;10.25;;;10.25;;
1959;SDS011;980;43.794;11.212;2022-10-31T13:09:04;13.50;;;13.50;;
1959;SDS011;980;43.794;11.212;2022-10-31T13:11:32;11.00;;;10.75;;
1959;SDS011;980;43.794;11.212;2022-10-31T13:14:23;10.00;;;8.50;;
1959;SDS011;980;43.794;11.212;2022-10-31T13:16:45;15.75;;;10.75;;
1959;SDS011;980;43.794;11.212;2022-10-31T13:24:31;10.75;;;10.25;;
1959;SDS011;980;43.794;11.212;2022-10-31T13:26:59;12.25;;;10.00;;
1959;SDS011;980;43.794;11.212;2022-10-31T13:29:32;10.00;;;10.00;;
1959;SDS011;980;43.794;11.212;2022-10-31T13:31:59;11.50;;;9.00;;
1959;SDS011;980;43.794;11.212;2022-10-31T13:34:35;11.00;;;11.00;;
1959;SDS011;980;43.794;11.212;2022-10-31T13:42:22;9.25;;;9.25;;
1959;SDS011;980;43.794;11.212;2022-10-31T13:44:51;13.25;;;10.50;;
1959;SDS011;980;43.794;11.212;2022-10-31T13:47:24;13.00;;;10.50;;
1959;SDS011;980;43.794;11.212;2022-10-31T13:49:50;10.75;;;10.00;;
1959;SDS011;980;43.794;11.212;2022-10-31T13:52:17;11.00;;;10.50;;
1959;SDS011;980;43.794;11.212;2022-10-31T13:54:47;12.00;;;8.00;;
1959;SDS011;980;43.794;11.212;2022-10-31T13:57:21;12.50;;;10.25;;
1959;SDS011;980;43.794;11.212;2022-10-31T13:59:48;13.25;;;11.00;;
1959;SDS011;980;43.794;11.212;2022-10-31T14:02:15;13.00;;;10.00;;
1959;SDS011;980;43.794;11.212;2022-10-31T14:04:46;14.00;;;11.25;;
1959;SDS011;980;43.794;11.212;2022-10-31T14:07:13;12.00;;;7.50;;
1959;SDS011;980;43.794;11.212;2022-10-31T14:09:51;11.25;;;9.75;;
1959;SDS011;980;43.794;11.212;2022-10-31T14:12:26;12.00;;;10.25;;
1959;SDS011;980;43.794;11.212;2022-10-31T14:14:53;10.50;;;9.75;;
1959;SDS011;980;43.794;11.212;2022-10-31T14:17:24;10.00;;;8.00;;
1959;SDS011;980;43.794;11.212;2022-10-31T14:22:34;16.00;;;10.25;;
1959;SDS011;980;43.794;11.212;2022-10-31T14:24:59;10.25;;;10.25;;
1959;SDS011;980;43.794;11.212;2022-10-31T14:29:53;11.50;;;11.00;;
1959;SDS011;980;43.794;11.212;2022-10-31T14:32:22;49.00;;;39.00;;
1959;SDS011;980;43.794;11.212;2022-10-31T14:34:57;28.50;;;21.25;;
1959;SDS011;980;43.794;11.212;2022-10-31T14:52:47;14.75;;;14.00;;
1959;SDS011;980;43.794;11.212;2022-10-31T14:55:14;15.00;;;15.00;;
1959;SDS011;980;43.794;11.212;2022-10-31T14:57:42;14.75;;;14.00;;
1959;SDS011;980;43.794;11.212;2022-10-31T15:00:12;16.25;;;14.50;;
1959;SDS011;980;43.794;11.212;2022-10-31T15:05:12;12.25;;;12.25;;
1959;SDS011;980;43.794;11.212;2022-10-31T15:07:48;14.25;;;13.50;;
1959;SDS011;980;43.794;11.212;2022-10-31T15:10:24;20.50;;;16.50;;
1959;SDS011;980;43.794;11.212;2022-10-31T15:12:50;15.25;;;14.50;;
1959;SDS011;980;43.794;11.212;2022-10-31T15:15:25;14.75;;;12.75;;
1959;SDS011;980;43.794;11.212;2022-10-31T15:17:55;17.00;;;15.00;;
1959;SDS011;980;43.794;11.212;2022-10-31T15:20:23;18.75;;;15.00;;
1959;SDS011;980;43.794;11.212;2022-10-31T15:22:49;14.25;;;10.50;;
1959;SDS011;980;43.794;11.212;2022-10-31T15:25:18;17.25;;;14.00;;
1959;SDS011;980;43.794;11.212;2022-10-31T15:27:45;19.50;;;15.00;;
1959;SDS011;980;43.794;11.212;2022-10-31T15:30:16;18.25;;;14.50;;
1959;SDS011;980;43.794;11.212;2022-10-31T15:32:43;19.25;;;19.00;;
1959;SDS011;980;43.794;11.212;2022-10-31T15:35:09;16.50;;;15.75;;
1959;SDS011;980;43.794;11.212;2022-10-31T15:37:34;17.25;;;15.75;;
1959;SDS011;980;43.794;11.212;2022-10-31T15:40:06;20.00;;;15.50;;
1959;SDS011;980;43.794;11.212;2022-10-31T15:42:41;21.75;;;16.00;;
1959;SDS011;980;43.794;11.212;2022-10-31T15:47:36;18.50;;;16.00;;
1959;SDS011;980;43.794;11.212;2022-10-31T15:50:02;20.75;;;19.50;;
1959;SDS011;980;43.794;11.212;2022-10-31T15:52:43;20.25;;;19.25;;
1959;SDS011;980;43.794;11.212;2022-10-31T15:57:48;19.75;;;19.75;;
1959;SDS011;980;43.794;11.212;2022-10-31T16:00:28;21.75;;;16.00;;
1959;SDS011;980;43.794;11.212;2022-10-31T16:03:28;19.00;;;16.75;;
1959;SDS011;980;43.794;11.212;2022-10-31T16:05:47;12.75;;;11.75;;
1959;SDS011;980;43.794;11.212;2022-10-31T16:13:33;18.50;;;13.50;;
1959;SDS011;980;43.794;11.212;2022-10-31T16:16:03;15.50;;;14.50;;
1959;SDS011;980;43.794;11.212;2022-10-31T16:18:30;16.25;;;13.75;;
1959;SDS011;980;43.794;11.212;2022-10-31T16:20:59;25.75;;;20.25;;
1959;SDS011;980;43.794;11.212;2022-10-31T16:23:25;19.00;;;14.75;;
1959;SDS011;980;43.794;11.212;2022-10-31T16:25:51;13.50;;;12.75;;
1959;SDS011;980;43.794;11.212;2022-10-31T16:28:20;14.75;;;14.00;;
1959;SDS011;980;43.794;11.212;2022-10-31T16:30:50;15.75;;;15.75;;
1959;SDS011;980;43.794;11.212;2022-10-31T16:33:30;19.75;;;15.00;;
1959;SDS011;980;43.794;11.212;2022-10-31T16:35:58;18.75;;;15.00;;
1959;SDS011;980;43.794;11.212;2022-10-31T16:38:24;19.25;;;16.00;;
1959;SDS011;980;43.794;11.212;2022-10-31T16:40:49;15.75;;;15.00;;
1959;SDS011;980;43.794;11.212;2022-10-31T16:43:16;14.25;;;14.25;;
1959;SDS011;980;43.794;11.212;2022-10-31T16:45:47;20.50;;;17.75;;
1959;SDS011;980;43.794;11.212;2022-10-31T16:48:14;20.50;;;14.75;;
1959;SDS011;980;43.794;11.212;2022-10-31T16:50:40;18.25;;;16.00;;
1959;SDS011;980;43.794;11.212;2022-10-31T16:53:06;22.25;;;19.25;;
1959;SDS011;980;43.794;11.212;2022-10-31T16:55:31;19.00;;;16.25;;
1959;SDS011;980;43.794;11.212;2022-10-31T16:58:00;19.25;;;15.25;;
1959;SDS011;980;43.794;11.212;2022-10-31T17:00:26;19.50;;;15.25;;
1959;SDS011;980;43.794;11.212;2022-10-31T17:02:52;19.00;;;18.00;;
1959;SDS011;980;43.794;11.212;2022-10-31T17:05:18;20.50;;;18.25;;
1959;SDS011;980;43.794;11.212;2022-10-31T17:07:44;17.25;;;17.25;;
1959;SDS011;980;43.794;11.212;2022-10-31T17:10:10;24.50;;;20.50;;
1959;SDS011;980;43.794;11.212;2022-10-31T17:12:36;20.25;;;18.75;;
1959;SDS011;980;43.794;11.212;2022-10-31T17:15:01;24.00;;;24.00;;
1959;SDS011;980;43.794;11.212;2022-10-31T17:17:26;24.00;;;20.75;;
1959;SDS011;980;43.794;11.212;2022-10-31T17:19:52;20.75;;;20.75;;
1959;SDS011;980;43.794;11.212;2022-10-31T17:22:17;26.00;;;22.50;;
1959;SDS011;980;43.794;11.212;2022-10-31T17:24:42;24.25;;;19.50;;
1959;SDS011;980;43.794;11.212;2022-10-31T17:27:08;25.25;;;19.25;;
1959;SDS011;980;43.794;11.212;2022-10-31T17:29:33;19.50;;;18.25;;
1959;SDS011;980;43.794;11.212;2022-10-31T17:31:59;18.00;;;16.75;;
1959;SDS011;980;43.794;11.212;2022-10-31T17:34:24;21.00;;;18.50;;
1959;SDS011;980;43.794;11.212;2022-10-31T17:36:50;23.25;;;19.75;;
1959;SDS011;980;43.794;11.212;2022-10-31T17:39:16;23.50;;;20.00;;
1959;SDS011;980;43.794;11.212;2022-10-31T17:41:41;26.50;;;23.50;;
1959;SDS011;980;43.794;11.212;2022-10-31T17:44:08;24.00;;;22.00;;
1959;SDS011;980;43.794;11.212;2022-10-31T17:46:34;19.50;;;18.00;;
1959;SDS011;980;43.794;11.212;2022-10-31T17:48:59;19.50;;;19.50;;
1959;SDS011;980;43.794;11.212;2022-10-31T17:51:25;25.75;;;24.75;;
1959;SDS011;980;43.794;11.212;2022-10-31T17:53:50;25.50;;;22.00;;
1959;SDS011;980;43.794;11.212;2022-10-31T17:56:16;20.25;;;18.25;;
1959;SDS011;980;43.794;11.212;2022-10-31T17:58:41;21.75;;;18.25;;
1959;SDS011;980;43.794;11.212;2022-10-31T18:01:07;19.00;;;17.75;;
1959;SDS011;980;43.794;11.212;2022-10-31T18:03:33;17.00;;;15.00;;
1959;SDS011;980;43.794;11.212;2022-10-31T18:05:59;18.75;;;18.00;;
1959;SDS011;980;43.794;11.212;2022-10-31T18:08:25;17.50;;;14.50;;
1959;SDS011;980;43.794;11.212;2022-10-31T18:10:50;21.50;;;16.75;;
1959;SDS011;980;43.794;11.212;2022-10-31T18:13:16;18.75;;;18.25;;
1959;SDS011;980;43.794;11.212;2022-10-31T18:15:41;23.75;;;17.00;;
1959;SDS011;980;43.794;11.212;2022-10-31T18:18:06;20.75;;;18.75;;
1959;SDS011;980;43.794;11.212;2022-10-31T18:20:32;20.25;;;18.25;;
1959;SDS011;980;43.794;11.212;2022-10-31T18:22:57;21.00;;;17.50;;
1959;SDS011;980;43.794;11.212;2022-10-31T18:25:22;22.75;;;19.25;;
1959;SDS011;980;43.794;11.212;2022-10-31T18:27:48;22.75;;;19.75;;
1959;SDS011;980;43.794;11.212;2022-10-31T18:30:13;19.50;;;18.50;;
1959;SDS011;980;43.794;11.212;2022-10-31T18:32:38;22.25;;;20.00;;
1959;SDS011;980;43.794;11.212;2022-10-31T18:35:04;25.50;;;21.00;;
1959;SDS011;980;43.794;11.212;2022-10-31T18:37:29;23.75;;;21.50;;
1959;SDS011;980;43.794;11.212;2022-10-31T18:39:54;21.25;;;17.75;;
1959;SDS011;980;43.794;11.212;2022-10-31T18:42:19;18.25;;;16.50;;
1959;SDS011;980;43.794;11.212;2022-10-31T18:44:45;23.50;;;22.50;;
1959;SDS011;980;43.794;11.212;2022-10-31T18:47:10;23.75;;;21.25;;
1959;SDS011;980;43.794;11.212;2022-10-31T18:49:35;21.50;;;20.00;;
1959;SDS011;980;43.794;11.212;2022-10-31T18:52:01;25.00;;;18.75;;
1959;SDS011;980;43.794;11.212;2022-10-31T18:54:26;23.50;;;23.00;;
1959;SDS011;980;43.794;11.212;2022-10-31T18:56:51;21.00;;;17.00;;
1959;SDS011;980;43.794;11.212;2022-10-31T18:59:17;26.25;;;21.75;;
1959;SDS011;980;43.794;11.212;2022-10-31T19:01:42;20.25;;;18.50;;
1959;SDS011;980;43.794;11.212;2022-10-31T19:04:08;20.75;;;18.50;;
1959;SDS011;980;43.794;11.212;2022-10-31T19:06:34;17.50;;;17.00;;
1959;SDS011;980;43.794;11.212;2022-10-31T19:09:01;21.00;;;16.50;;
1959;SDS011;980;43.794;11.212;2022-10-31T19:11:27;22.00;;;19.25;;
1959;SDS011;980;43.794;11.212;2022-10-31T19:13:53;24.50;;;20.00;;
1959;SDS011;980;43.794;11.212;2022-10-31T19:16:18;24.50;;;21.00;;
1959;SDS011;980;43.794;11.212;2022-10-31T19:18:43;29.25;;;22.25;;
1959;SDS011;980;43.794;11.212;2022-10-31T19:21:12;31.25;;;26.00;;
1959;SDS011;980;43.794;11.212;2022-10-31T19:23:38;35.50;;;28.00;;
1959;SDS011;980;43.794;11.212;2022-10-31T19:26:04;23.25;;;21.00;;
1959;SDS011;980;43.794;11.212;2022-10-31T19:28:30;26.75;;;21.25;;
1959;SDS011;980;43.794;11.212;2022-10-31T19:30:56;29.75;;;24.50;;
1959;SDS011;980;43.794;11.212;2022-10-31T19:33:21;24.25;;;22.25;;
1959;SDS011;980;43.794;11.212;2022-10-31T19:35:46;26.00;;;20.25;;
1959;SDS011;980;43.794;11.212;2022-10-31T19:38:12;24.75;;;20.50;;
1959;SDS011;980;43.794;11.212;2022-10-31T19:40:37;18.50;;;17.75;;
1959;SDS011;980;43.794;11.212;2022-10-31T19:43:02;18.50;;;18.00;;
1959;SDS011;980;43.794;11.212;2022-10-31T19:45:28;27.25;;;23.75;;
1959;SDS011;980;43.794;11.212;2022-10-31T19:47:53;25.75;;;23.00;;
1959;SDS011;980;43.794;11.212;2022-10-31T19:50:18;25.75;;;20.25;;
1959;SDS011;980;43.794;11.212;2022-10-31T19:52:44;18.00;;;16.25;;
1959;SDS011;980;43.794;11.212;2022-10-31T19:55:10;26.25;;;24.25;;
1959;SDS011;980;43.794;11.212;2022-10-31T19:57:35;23.25;;;20.50;;
1959;SDS011;980;43.794;11.212;2022-10-31T20:00:01;21.75;;;21.00;;
1959;SDS011;980;43.794;11.212;2022-10-31T20:02:26;19.75;;;19.75;;
1959;SDS011;980;43.794;11.212;2022-10-31T20:04:52;15.00;;;12.75;;
1959;SDS011;980;43.794;11.212;2022-10-31T20:07:17;26.00;;;25.00;;
1959;SDS011;980;43.794;11.212;2022-10-31T20:09:46;32.25;;;26.00;;
1959;SDS011;980;43.794;11.212;2022-10-31T20:12:11;28.25;;;21.50;;
1959;SDS011;980;43.794;11.212;2022-10-31T20:14:36;23.75;;;22.00;;
1959;SDS011;980;43.794;11.212;2022-10-31T20:17:02;24.50;;;23.00;;
1959;SDS011;980;43.794;11.212;2022-10-31T20:19:27;29.50;;;25.50;;
1959;SDS011;980;43.794;11.212;2022-10-31T20:21:52;21.75;;;19.75;;
1959;SDS011;980;43.794;11.212;2022-10-31T20:24:18;26.50;;;24.50;;
1959;SDS011;980;43.794;11.212;2022-10-31T20:26:43;33.75;;;27.00;;
1959;SDS011;980;43.794;11.212;2022-10-31T20:29:11;28.75;;;25.50;;
1959;SDS011;980;43.794;11.212;2022-10-31T20:31:36;34.00;;;29.00;;
1959;SDS011;980;43.794;11.212;2022-10-31T20:34:02;31.00;;;25.25;;
1959;SDS011;980;43.794;11.212;2022-10-31T20:36:28;31.00;;;29.50;;
1959;SDS011;980;43.794;11.212;2022-10-31T20:38:54;26.50;;;24.25;;
1959;SDS011;980;43.794;11.212;2022-10-31T20:41:20;44.25;;;38.00;;
1959;SDS011;980;43.794;11.212;2022-10-31T20:43:45;30.00;;;26.00;;
1959;SDS011;980;43.794;11.212;2022-10-31T20:48:36;28.75;;;26.00;;
1959;SDS011;980;43.794;11.212;2022-10-31T20:51:03;30.75;;;27.75;;
1959;SDS011;980;43.794;11.212;2022-10-31T20:53:29;27.00;;;24.75;;
1959;SDS011;980;43.794;11.212;2022-10-31T20:58:26;32.25;;;31.00;;
1959;SDS011;980;43.794;11.212;2022-10-31T21:00:51;30.75;;;26.00;;
1959;SDS011;980;43.794;11.212;2022-10-31T21:03:16;25.75;;;25.25;;
1959;SDS011;980;43.794;11.212;2022-10-31T21:05:41;32.75;;;28.00;;
1959;SDS011;980;43.794;11.212;2022-10-31T21:08:07;32.00;;;29.50;;
1959;SDS011;980;43.794;11.212;2022-10-31T21:10:32;38.00;;;27.75;;
1959;SDS011;980;43.794;11.212;2022-10-31T21:12:57;28.75;;;23.50;;